Seattle, WA

4:10 PM PST on February 07, 2016 (GMT -0800)
hillman city | | Change Station
CLOSE
Current Station
Personal Weather Station
Location: Seattle, WA
Elevation: 213 ft
Nearby Weather Stations

Elev 213 ft 47.55 °N, 122.28 °W | Updated 56 seconds ago

Mostly Cloudy
Mostly Cloudy
51.5 °F
Feels Like 51.5 °F
N
1.1
Wind Variable Wind from North
Gusts 1.1 mph

Today
High -- | Low -- °F
--% Chance of Precip.
Yesterday
High -- | Low -- °F
Precip. -- in
Pressure 30.55 in
Visibility 10.0 miles
Clouds Scattered Clouds 5500 ft
Mostly Cloudy 9000 ft
Dew Point 41 °F
Humidity 67%
Rainfall 0.00 in
Snow Depth Not available.
7:27 AM 5:19 PM
Waning Crescent, 1% visible
METAR KBFI 072353Z 32006KT 10SM SCT055 BKN090 09/04 A3054 RMK AO2 SLP343 T00940044 10106 20056 56007
Pressure 30.55 in
Visibility 10.0 miles
Clouds Scattered Clouds 5500 ft
Mostly Cloudy 9000 ft
Dew Point 41 °F
Humidity 67%
Rainfall 0.00 in
Snow Depth Not available.
7:27 AM 5:19 PM
Waning Crescent, 1% visible
METAR KBFI 072353Z 32006KT 10SM SCT055 BKN090 09/04 A3054 RMK AO2 SLP343 T00940044 10106 20056 56007

10-Day Weather Forecast

Almanac

Astronomy

Feb. 07, 2016 Rise Set
Actual Time
Civil Twilight
Nautical Twilight
Astronomical Twilight
Moon
Length of Visible Light
Length of Day
Tomorrow will be .
, % of the Moon is Illuminated

Today's Extremes

State Highs State Lows

Community

WunderPhotos

Upload Photos

1,891,334 photos uploaded!

WunderBlog® & News

Nearby

Air Quality

  Air Quality AQ Index Pollutant
Not available.

Snow Depth

Station Depth Elevation

Earthquake Activity

City Distance Mag. Time & Date
Minimum magnitude displayed is 2.5.

Coastal Water Temperatures

Place Temperature

Stations

Nearby Weather Stations

Station Location Temp. Windchill Dew Point Humidity Wind Precip. Elev Updated Type
                   

Watches & Warnings

There are currently no watches in effect.